Terminal Aerodrome Forecast
Issued by NWS Grand Rapids, MI

Home | Current Version | Previous Version | Text Only | Print | Product List | Glossary On
Versions: 1 2 3 4 5 6 7 8 9 10 11 12 13
000
FTUS43 KGRR 282300 RRA
TAFGRR
TAF
KGRR 282343Z 2900/2924 15010KT P6SM OVC150
     FM290200 15012KT P6SM OVC120 WS020/18050KT
     FM290700 15013KT 4SM -FZRAPL BR OVC015 WS020/20050KT
     FM290900 17012KT 3SM -FZRAPL OVC009
     FM291500 23008KT 1SM -SNPL BR OVC009
     FM291800 31016G28KT 4SM -SHSN OVC015=

USA.gov is the U.S. government's official web portal to all federal, state and local government web resources and services.